createdAt,value
2022-08-28T00:00:53.679Z,99.99
2022-08-28T00:01:53.712Z,99.99
2022-08-28T00:02:53.870Z,99.99
2022-08-28T00:03:53.649Z,99.99
2022-08-28T00:04:53.708Z,99.99
2022-08-28T00:05:53.633Z,99.99
2022-08-28T00:06:53.710Z,99.99
2022-08-28T00:07:53.633Z,99.99
2022-08-28T00:08:53.595Z,99.99
2022-08-28T00:09:53.587Z,99.99
2022-08-28T00:10:53.587Z,99.99
2022-08-28T00:11:53.568Z,99.99
2022-08-28T00:12:53.632Z,99.99
2022-08-28T00:13:53.535Z,99.99
2022-08-28T00:14:53.522Z,99.99
2022-08-28T00:15:53.612Z,99.99
2022-08-28T00:16:53.510Z,99.99
2022-08-28T00:17:53.508Z,99.99
2022-08-28T00:18:53.508Z,99.99
2022-08-28T00:19:53.480Z,99.99
2022-08-28T00:20:53.460Z,99.99
2022-08-28T00:21:53.449Z,99.99
2022-08-28T00:22:53.436Z,99.99
2022-08-28T00:23:53.437Z,99.99
2022-08-28T00:24:55.442Z,99.99
2022-08-28T00:25:53.443Z,99.99
2022-08-28T00:26:53.450Z,99.99
2022-08-28T00:27:53.415Z,99.99
2022-08-28T00:28:53.409Z,99.99
2022-08-28T00:29:53.379Z,99.99
2022-08-28T00:30:53.402Z,99.99
2022-08-28T00:31:53.351Z,99.99
2022-08-28T00:32:53.341Z,99.99
2022-08-28T00:33:53.336Z,99.99
2022-08-28T00:34:53.319Z,99.99
2022-08-28T00:35:53.345Z,99.99
2022-08-28T00:36:53.288Z,99.99
2022-08-28T00:37:53.292Z,99.99
2022-08-28T00:38:53.269Z,99.99
2022-08-28T00:39:53.364Z,99.99
2022-08-28T00:40:53.275Z,99.99
2022-08-28T00:41:56.682Z,99.99
2022-08-28T00:42:53.232Z,99.99
2022-08-28T00:43:53.229Z,99.99
2022-08-28T00:44:53.204Z,99.99
2022-08-28T00:45:53.230Z,99.99
2022-08-28T00:46:53.245Z,99.99
2022-08-28T00:47:53.188Z,99.99
2022-08-28T00:48:53.163Z,99.99
2022-08-28T00:49:53.155Z,99.99
2022-08-28T00:50:53.169Z,99.99
2022-08-28T00:51:53.139Z,99.99
2022-08-28T00:52:53.125Z,99.99
2022-08-28T00:53:55.612Z,99.99
2022-08-28T00:54:58.757Z,99.99
2022-08-28T00:55:54.105Z,99.99
2022-08-28T00:56:53.079Z,99.99
2022-08-28T00:57:53.074Z,99.99
2022-08-28T00:58:53.095Z,99.99
2022-08-28T00:59:53.042Z,99.99
2022-08-28T01:00:53.029Z,99.99
2022-08-28T01:01:53.107Z,99.99
2022-08-28T01:02:53.038Z,99.99
2022-08-28T01:03:53.002Z,99.99
2022-08-28T01:04:53.029Z,99.99
2022-08-28T01:05:53.002Z,99.99
2022-08-28T01:06:52.961Z,99.99
2022-08-28T01:07:52.971Z,99.99
2022-08-28T01:08:52.945Z,99.99
2022-08-28T01:09:52.960Z,99.99
2022-08-28T01:10:52.927Z,99.99
2022-08-28T01:11:52.926Z,99.99
2022-08-28T01:12:52.913Z,99.99
2022-08-28T01:13:52.886Z,99.99
2022-08-28T01:14:52.899Z,99.99
2022-08-28T01:15:52.921Z,99.99
2022-08-28T01:16:52.858Z,99.99
2022-08-28T01:17:52.837Z,99.99
2022-08-28T01:18:52.841Z,99.99
2022-08-28T01:19:52.818Z,99.99
2022-08-28T01:20:52.824Z,99.99
2022-08-28T01:21:52.808Z,99.99
2022-08-28T01:22:52.800Z,99.99
2022-08-28T01:23:52.784Z,99.99
2022-08-28T01:24:52.759Z,99.99
2022-08-28T01:25:52.761Z,99.99
2022-08-28T01:26:52.747Z,99.99
2022-08-28T01:27:52.734Z,99.99
2022-08-28T01:28:52.737Z,99.99
2022-08-28T01:29:52.728Z,99.99
2022-08-28T01:30:52.728Z,99.99
2022-08-28T01:31:52.691Z,99.99
2022-08-28T01:32:52.694Z,99.99
2022-08-28T01:33:52.705Z,99.99
2022-08-28T01:34:52.698Z,99.99
2022-08-28T01:35:52.665Z,99.99
2022-08-28T01:36:52.636Z,99.99
2022-08-28T01:37:52.631Z,99.99
2022-08-28T01:38:52.677Z,99.99
2022-08-28T01:39:52.622Z,99.99
2022-08-28T01:40:52.607Z,99.99
2022-08-28T01:41:52.591Z,99.99
2022-08-28T01:42:52.581Z,99.99
2022-08-28T01:43:52.560Z,99.99
2022-08-28T01:44:52.558Z,99.99
2022-08-28T01:45:52.550Z,99.99
2022-08-28T01:46:52.535Z,99.99
2022-08-28T01:47:52.519Z,99.99
2022-08-28T01:48:52.498Z,99.99
2022-08-28T01:49:52.503Z,99.99
2022-08-28T01:50:52.477Z,99.99
2022-08-28T01:51:52.480Z,99.99
2022-08-28T01:52:52.467Z,99.99
2022-08-28T01:53:52.460Z,99.99
2022-08-28T01:54:52.453Z,99.99
2022-08-28T01:55:52.428Z,99.99
2022-08-28T01:56:52.409Z,99.99
2022-08-28T01:57:52.414Z,99.99
2022-08-28T01:58:52.475Z,99.99
2022-08-28T01:59:52.414Z,99.99
2022-08-28T02:00:52.382Z,99.99
2022-08-28T02:01:52.446Z,99.99
2022-08-28T02:02:52.348Z,99.99
2022-08-28T02:03:52.360Z,99.99
2022-08-28T02:04:52.389Z,99.99
2022-08-28T02:05:52.325Z,99.99
2022-08-28T02:06:52.323Z,99.99
2022-08-28T02:07:52.342Z,99.99
2022-08-28T02:08:52.288Z,99.99
2022-08-28T02:09:52.306Z,99.99
2022-08-28T02:10:52.273Z,99.99
2022-08-28T02:11:52.262Z,99.99
2022-08-28T02:12:52.298Z,99.99
2022-08-28T02:13:52.272Z,99.99
2022-08-28T02:14:52.215Z,99.99
2022-08-28T02:15:52.290Z,99.99
2022-08-28T02:16:52.223Z,99.99
2022-08-28T02:17:52.227Z,99.99
2022-08-28T02:18:52.180Z,99.99
2022-08-28T02:19:52.168Z,99.99
2022-08-28T02:20:52.156Z,99.99
2022-08-28T02:21:52.138Z,99.99
2022-08-28T02:22:52.167Z,99.99
2022-08-28T02:23:52.129Z,99.99
2022-08-28T02:24:52.119Z,99.99
2022-08-28T02:25:52.106Z,99.99
2022-08-28T02:26:52.118Z,99.99
2022-08-28T02:27:52.087Z,99.99
2022-08-28T02:28:52.082Z,99.99
2022-08-28T02:29:52.057Z,99.99
2022-08-28T02:30:52.102Z,99.99
2022-08-28T02:31:52.052Z,99.99
2022-08-28T02:32:52.027Z,99.99
2022-08-28T02:33:52.014Z,99.99
2022-08-28T02:34:52.030Z,99.99
2022-08-28T02:35:51.986Z,99.99
2022-08-28T02:36:51.987Z,99.99
2022-08-28T02:37:51.984Z,99.99
2022-08-28T02:38:57.364Z,99.99
2022-08-28T02:39:52.966Z,99.99
2022-08-28T02:40:51.939Z,99.99
2022-08-28T02:41:51.931Z,99.99
2022-08-28T02:42:51.924Z,99.99
2022-08-28T02:43:51.920Z,99.99
2022-08-28T02:44:51.895Z,99.99
2022-08-28T02:45:51.926Z,99.99
2022-08-28T02:46:51.868Z,99.99
2022-08-28T02:47:51.887Z,99.99
2022-08-28T02:48:51.863Z,99.99
2022-08-28T02:49:51.867Z,99.99
2022-08-28T02:50:51.850Z,99.99
2022-08-28T02:51:51.938Z,99.99
2022-08-28T02:52:51.815Z,99.99
2022-08-28T02:53:51.857Z,99.99
2022-08-28T02:54:51.800Z,99.99
2022-08-28T02:55:51.792Z,99.99
2022-08-28T02:56:51.787Z,99.99
2022-08-28T02:57:51.767Z,99.99
2022-08-28T02:58:51.758Z,99.99
2022-08-28T02:59:51.743Z,99.99
2022-08-28T03:00:51.726Z,99.99
2022-08-28T03:01:51.748Z,99.99
2022-08-28T03:02:51.812Z,99.99
2022-08-28T03:03:51.685Z,99.99
2022-08-28T03:04:51.694Z,99.99
2022-08-28T03:05:51.665Z,99.99
2022-08-28T03:06:51.653Z,99.99
2022-08-28T03:07:51.640Z,99.99
2022-08-28T03:08:51.642Z,99.99
2022-08-28T03:09:51.644Z,99.99
2022-08-28T03:10:51.618Z,99.99
2022-08-28T03:11:51.595Z,99.99
2022-08-28T03:12:51.592Z,99.99
2022-08-28T03:13:51.579Z,99.99
2022-08-28T03:14:51.588Z,99.99
2022-08-28T03:15:52.012Z,99.99
2022-08-28T03:16:51.611Z,99.99
2022-08-28T03:17:51.561Z,99.99
2022-08-28T03:18:51.527Z,99.99
2022-08-28T03:19:51.513Z,99.99
2022-08-28T03:20:51.500Z,99.99
2022-08-28T03:21:52.336Z,99.99
2022-08-28T03:22:51.483Z,99.99
2022-08-28T03:23:51.481Z,99.99
2022-08-28T03:24:51.464Z,99.99
2022-08-28T03:25:51.457Z,99.99
2022-08-28T03:26:51.549Z,99.99
2022-08-28T03:27:51.424Z,99.99
2022-08-28T03:28:51.410Z,99.99
2022-08-28T03:29:51.413Z,99.99
2022-08-28T03:30:51.457Z,99.99
2022-08-28T03:31:51.387Z,99.99
2022-08-28T03:32:51.390Z,99.99
2022-08-28T03:33:51.405Z,99.99
2022-08-28T03:34:51.347Z,99.99
2022-08-28T03:35:51.338Z,99.99
2022-08-28T03:36:51.342Z,99.99
2022-08-28T03:37:51.354Z,99.99
2022-08-28T03:38:51.318Z,99.99
2022-08-28T03:39:51.314Z,99.99
2022-08-28T03:40:51.287Z,99.99
2022-08-28T03:41:51.492Z,99.99
2022-08-28T03:42:53.434Z,99.99
2022-08-28T03:43:51.365Z,99.99
2022-08-28T03:44:51.241Z,99.99
2022-08-28T03:45:51.267Z,99.99
2022-08-28T03:46:51.215Z,99.99
2022-08-28T03:47:51.214Z,99.99
2022-08-28T03:48:51.212Z,99.99
2022-08-28T03:49:51.224Z,99.99
2022-08-28T03:50:51.225Z,99.99
2022-08-28T03:51:51.190Z,99.99
2022-08-28T03:52:51.169Z,99.99
2022-08-28T03:53:51.146Z,99.99
2022-08-28T03:54:51.139Z,99.99
2022-08-28T03:55:51.167Z,99.99
2022-08-28T03:56:51.114Z,99.99
2022-08-28T03:57:51.109Z,99.99
2022-08-28T03:58:51.091Z,99.99
2022-08-28T03:59:51.103Z,99.99
2022-08-28T04:00:51.068Z,99.99
2022-08-28T04:01:51.088Z,99.99
2022-08-28T04:02:51.073Z,99.99
2022-08-28T04:03:51.031Z,99.99
2022-08-28T04:04:51.020Z,99.99
2022-08-28T04:05:51.018Z,99.99
2022-08-28T04:06:51.001Z,99.99
2022-08-28T04:07:50.994Z,99.99
2022-08-28T04:08:51.073Z,99.99
2022-08-28T04:09:50.973Z,99.99
2022-08-28T04:10:50.994Z,99.99
2022-08-28T04:11:51.028Z,99.99
2022-08-28T04:12:50.969Z,99.99
2022-08-28T04:13:50.932Z,99.99
2022-08-28T04:14:50.925Z,99.99
2022-08-28T04:15:50.903Z,99.99
2022-08-28T04:16:50.996Z,99.99
2022-08-28T04:17:50.899Z,99.99
2022-08-28T04:18:50.920Z,99.99
2022-08-28T04:19:50.868Z,99.99
2022-08-28T04:20:50.868Z,99.99
2022-08-28T04:21:50.840Z,99.99
2022-08-28T04:22:55.112Z,99.99
2022-08-28T04:23:50.858Z,99.99
2022-08-28T04:24:50.804Z,99.99
2022-08-28T04:25:50.807Z,99.99
2022-08-28T04:26:50.798Z,99.99
2022-08-28T04:27:50.771Z,99.99
2022-08-28T04:28:50.972Z,99.99
2022-08-28T04:29:50.782Z,99.99
2022-08-28T04:30:50.763Z,99.99
2022-08-28T04:31:50.826Z,99.99
2022-08-28T04:32:50.726Z,99.99
2022-08-28T04:33:50.731Z,99.99
2022-08-28T04:34:50.836Z,99.99
2022-08-28T04:35:50.690Z,99.99
2022-08-28T04:36:50.680Z,99.99
2022-08-28T04:37:50.724Z,99.99
2022-08-28T04:38:50.663Z,99.99
2022-08-28T04:39:50.679Z,99.99
2022-08-28T04:40:50.633Z,99.99
2022-08-28T04:41:50.628Z,99.99
2022-08-28T04:42:50.635Z,99.99
2022-08-28T04:43:50.601Z,99.99
2022-08-28T04:44:50.598Z,99.99
2022-08-28T04:45:50.622Z,99.99
2022-08-28T04:46:50.563Z,99.99
2022-08-28T04:47:50.566Z,99.99
2022-08-28T04:48:50.571Z,99.99
2022-08-28T04:49:50.550Z,99.99
2022-08-28T04:50:50.531Z,99.99
2022-08-28T04:51:50.511Z,99.99
2022-08-28T04:52:50.520Z,99.99
2022-08-28T04:53:50.489Z,99.99
2022-08-28T04:54:50.589Z,99.99
2022-08-28T04:55:55.021Z,99.99
2022-08-28T04:56:50.454Z,99.99
2022-08-28T04:57:50.449Z,99.99
2022-08-28T04:58:50.444Z,99.99
2022-08-28T04:59:50.469Z,99.99
2022-08-28T05:00:50.507Z,99.99
2022-08-28T05:01:50.452Z,99.99
2022-08-28T05:02:50.391Z,99.99
2022-08-28T05:03:50.377Z,99.99
2022-08-28T05:04:50.376Z,99.99
2022-08-28T05:05:50.446Z,99.99
2022-08-28T05:06:50.367Z,99.99
2022-08-28T05:07:50.338Z,99.99
2022-08-28T05:08:50.325Z,99.99
2022-08-28T05:09:50.316Z,99.99
2022-08-28T05:10:50.308Z,99.99
2022-08-28T05:11:50.306Z,99.99
2022-08-28T05:12:50.287Z,99.99
2022-08-28T05:13:50.297Z,99.99
2022-08-28T05:14:50.281Z,99.99
2022-08-28T05:15:50.273Z,99.99
2022-08-28T05:16:50.244Z,99.99
2022-08-28T05:17:50.243Z,99.99
2022-08-28T05:18:50.274Z,99.99
2022-08-28T05:19:50.213Z,99.99
2022-08-28T05:20:50.210Z,99.99
2022-08-28T05:21:50.208Z,99.99
2022-08-28T05:22:50.192Z,99.99
2022-08-28T05:23:50.194Z,99.99
2022-08-28T05:24:50.185Z,99.99
2022-08-28T05:25:50.140Z,99.99
2022-08-28T05:26:50.149Z,99.99
2022-08-28T05:27:50.155Z,99.99
2022-08-28T05:28:50.238Z,99.99
2022-08-28T05:29:50.120Z,99.99
2022-08-28T05:30:50.106Z,99.99
2022-08-28T05:31:50.112Z,99.99
2022-08-28T05:32:50.068Z,99.99
2022-08-28T05:33:50.063Z,99.99
2022-08-28T05:34:50.062Z,99.99
2022-08-28T05:35:50.041Z,99.99
2022-08-28T05:36:50.042Z,99.99
2022-08-28T05:37:50.038Z,99.99
2022-08-28T05:38:50.015Z,97.94
2022-08-28T05:39:50.035Z,99.99
2022-08-28T05:40:50.005Z,95.53
2022-08-28T05:41:49.990Z,95.58
2022-08-28T05:42:49.983Z,94.73
2022-08-28T05:43:50.127Z,93.67
2022-08-28T05:44:49.941Z,91.38
2022-08-28T05:45:49.998Z,90.47
2022-08-28T05:46:49.930Z,92.60
2022-08-28T05:47:49.925Z,90.53
2022-08-28T05:48:49.899Z,91.85
2022-08-28T05:49:49.929Z,91.64
2022-08-28T05:50:49.903Z,91.50
2022-08-28T05:51:49.880Z,91.19
2022-08-28T05:52:49.882Z,91.25
2022-08-28T05:53:49.850Z,89.37
2022-08-28T05:54:49.835Z,89.11
2022-08-28T05:55:51.912Z,91.38
2022-08-28T05:56:49.846Z,93.05
2022-08-28T05:57:49.804Z,92.44
2022-08-28T05:58:49.820Z,92.84
2022-08-28T05:59:49.770Z,93.55
2022-08-28T06:00:49.774Z,92.29
2022-08-28T06:01:49.833Z,92.65
2022-08-28T06:02:49.760Z,91.89
2022-08-28T06:03:49.767Z,92.25
2022-08-28T06:04:49.732Z,91.19
2022-08-28T06:05:49.845Z,89.32
2022-08-28T06:06:49.716Z,89.69
2022-08-28T06:07:49.715Z,87.71
2022-08-28T06:08:58.343Z,88.66
2022-08-28T06:09:50.689Z,88.86
2022-08-28T06:10:50.893Z,89.94
2022-08-28T06:11:49.691Z,89.12
2022-08-28T06:12:49.640Z,88.68
2022-08-28T06:13:49.623Z,87.16
2022-08-28T06:14:49.628Z,88.07
2022-08-28T06:15:49.650Z,89.08
2022-08-28T06:16:49.603Z,88.37
2022-08-28T06:17:49.577Z,87.77
2022-08-28T06:18:49.568Z,86.85
2022-08-28T06:19:49.635Z,88.13
2022-08-28T06:20:49.656Z,86.85
2022-08-28T06:21:49.554Z,86.91
2022-08-28T06:22:49.521Z,87.66
2022-08-28T06:23:49.547Z,87.97
2022-08-28T06:24:49.505Z,89.34
2022-08-28T06:25:49.496Z,88.39
2022-08-28T06:26:49.501Z,86.41
2022-08-28T06:27:49.480Z,89.54
2022-08-28T06:28:49.470Z,88.17
2022-08-28T06:29:49.456Z,87.16
2022-08-28T06:31:18.358Z,89.18
2022-08-28T06:31:50.503Z,89.48
2022-08-28T06:32:49.418Z,89.45
2022-08-28T06:33:49.415Z,87.62
2022-08-28T06:34:49.398Z,87.79
2022-08-28T06:35:49.405Z,88.39
2022-08-28T06:36:53.653Z,88.04
2022-08-28T06:37:49.365Z,86.87
2022-08-28T06:38:49.357Z,85.05
2022-08-28T06:39:49.351Z,85.39
2022-08-28T06:40:49.340Z,86.35
2022-08-28T06:41:49.347Z,85.48
2022-08-28T06:42:49.310Z,87.56
2022-08-28T06:43:49.304Z,88.64
2022-08-28T06:44:49.326Z,87.12
2022-08-28T06:45:49.309Z,87.16
2022-08-28T06:46:49.293Z,89.70
2022-08-28T06:47:49.265Z,87.34
2022-08-28T06:48:49.283Z,87.88
2022-08-28T06:49:49.229Z,84.75
2022-08-28T06:50:49.233Z,82.97
2022-08-28T06:51:49.222Z,85.72
2022-08-28T06:52:49.210Z,85.31
2022-08-28T06:53:49.191Z,86.37
2022-08-28T06:54:55.458Z,86.47
2022-08-28T06:55:50.201Z,85.11
2022-08-28T06:56:49.178Z,88.01
2022-08-28T06:57:49.156Z,85.93
2022-08-28T06:58:50.035Z,87.24
2022-08-28T06:59:49.154Z,84.61
2022-08-28T07:00:54.785Z,86.73
2022-08-28T07:01:50.264Z,86.49
2022-08-28T07:02:49.185Z,87.30
2022-08-28T07:03:49.080Z,85.46
2022-08-28T07:04:49.072Z,86.30
2022-08-28T07:05:49.066Z,86.57
2022-08-28T07:06:53.055Z,83.95
2022-08-28T07:07:50.044Z,84.43
2022-08-28T07:08:49.114Z,86.91
2022-08-28T07:09:49.006Z,85.16
2022-08-28T07:10:49.006Z,85.60
2022-08-28T07:11:49.015Z,84.29
2022-08-28T07:12:49.062Z,83.38
2022-08-28T07:13:48.979Z,84.55
2022-08-28T07:14:48.963Z,83.14
2022-08-28T07:15:49.013Z,84.65
2022-08-28T07:16:48.951Z,83.07
2022-08-28T07:17:48.972Z,83.95
2022-08-28T07:18:48.930Z,81.93
2022-08-28T07:19:48.898Z,84.05
2022-08-28T07:20:48.934Z,83.18
2022-08-28T07:21:48.879Z,82.79
2022-08-28T07:22:48.880Z,84.71
2022-08-28T07:23:49.884Z,86.35
2022-08-28T07:24:48.842Z,85.25
2022-08-28T07:25:48.842Z,85.82
2022-08-28T07:26:48.849Z,81.52
2022-08-28T07:27:48.810Z,81.76
2022-08-28T07:28:48.811Z,83.18
2022-08-28T07:29:48.814Z,82.79
2022-08-28T07:30:48.859Z,81.08
2022-08-28T07:31:49.033Z,82.35
2022-08-28T07:32:48.760Z,80.82
2022-08-28T07:33:50.789Z,82.13
2022-08-28T07:34:49.780Z,81.87
2022-08-28T07:35:48.730Z,82.51
2022-08-28T07:36:48.751Z,81.05
2022-08-28T07:37:48.722Z,82.47
2022-08-28T07:38:48.713Z,82.43
2022-08-28T07:39:48.689Z,82.47
2022-08-28T07:40:48.755Z,83.42
2022-08-28T07:41:48.675Z,84.59
2022-08-28T07:42:48.653Z,80.69
2022-08-28T07:43:48.690Z,84.93
2022-08-28T07:44:48.640Z,82.87
2022-08-28T07:45:48.742Z,82.01
2022-08-28T07:46:48.687Z,81.50
2022-08-28T07:47:48.612Z,82.27
2022-08-28T07:48:48.739Z,83.54
2022-08-28T07:49:48.627Z,83.24
2022-08-28T07:50:48.614Z,81.82
2022-08-28T07:51:48.599Z,82.67
2022-08-28T07:52:48.540Z,82.21
2022-08-28T07:53:49.086Z,83.66
2022-08-28T07:54:48.549Z,83.88
2022-08-28T07:55:48.552Z,81.87
2022-08-28T07:56:48.512Z,82.51
2022-08-28T07:57:48.497Z,85.31
2022-08-28T07:58:48.477Z,82.15
2022-08-28T07:59:48.470Z,82.13
2022-08-28T08:00:48.519Z,83.00
2022-08-28T08:01:48.571Z,83.02
2022-08-28T08:02:48.506Z,83.08
2022-08-28T08:03:48.474Z,80.16
2022-08-28T08:04:48.409Z,81.01
2022-08-28T08:05:48.419Z,79.69
2022-08-28T08:06:48.465Z,83.54
2022-08-28T08:07:48.394Z,80.65
2022-08-28T08:08:48.485Z,78.72
2022-08-28T08:09:48.375Z,82.96
2022-08-28T08:10:48.388Z,79.53
2022-08-28T08:11:49.104Z,82.25
2022-08-28T08:12:48.333Z,81.75
2022-08-28T08:13:48.378Z,83.93
2022-08-28T08:14:48.338Z,79.97
2022-08-28T08:15:48.357Z,81.95
2022-08-28T08:16:48.282Z,81.04
2022-08-28T08:17:48.304Z,81.55
2022-08-28T08:18:48.278Z,82.19
2022-08-28T08:19:48.512Z,80.80
2022-08-28T08:20:48.253Z,78.15
2022-08-28T08:21:48.318Z,80.87
2022-08-28T08:22:49.261Z,82.98
2022-08-28T08:23:48.205Z,79.56
2022-08-28T08:24:48.211Z,79.60
2022-08-28T08:25:48.206Z,80.84
2022-08-28T08:26:59.445Z,81.87
2022-08-28T08:27:49.289Z,79.69
2022-08-28T08:28:48.155Z,81.47
2022-08-28T08:29:48.162Z,79.29
2022-08-28T08:30:48.175Z,81.67
2022-08-28T08:31:48.123Z,80.44
2022-08-28T08:32:48.107Z,84.69
2022-08-28T08:33:48.117Z,80.93
2022-08-28T08:34:48.147Z,78.27
2022-08-28T08:35:48.080Z,79.35
2022-08-28T08:36:48.098Z,79.62
2022-08-28T08:37:48.076Z,80.87
2022-08-28T08:38:48.107Z,78.79
2022-08-28T08:39:48.110Z,79.93
2022-08-28T08:40:48.127Z,79.33
2022-08-28T08:41:48.028Z,82.86
2022-08-28T08:42:48.099Z,80.04
2022-08-28T08:43:48.012Z,81.38
2022-08-28T08:44:47.993Z,81.21
2022-08-28T08:45:48.002Z,81.91
2022-08-28T08:46:48.003Z,80.46
2022-08-28T08:47:47.962Z,81.13
2022-08-28T08:48:48.012Z,78.71
2022-08-28T08:49:47.961Z,77.68
2022-08-28T08:50:47.990Z,78.35
2022-08-28T08:51:47.918Z,80.63
2022-08-28T08:52:47.924Z,80.06
2022-08-28T08:53:47.924Z,78.85
2022-08-28T08:54:47.915Z,78.25
2022-08-28T08:55:47.907Z,80.63
2022-08-28T08:56:47.897Z,80.85
2022-08-28T08:57:49.376Z,79.91
2022-08-28T08:58:47.861Z,79.21
2022-08-28T08:59:47.941Z,78.23
2022-08-28T09:00:47.810Z,76.84
2022-08-28T09:01:47.881Z,79.96
2022-08-28T09:02:47.809Z,81.29
2022-08-28T09:03:47.897Z,79.99
2022-08-28T09:04:47.894Z,81.05
2022-08-28T09:05:47.761Z,80.77
2022-08-28T09:06:47.873Z,80.80
2022-08-28T09:07:52.665Z,78.22
2022-08-28T09:08:48.802Z,81.16
2022-08-28T09:09:47.726Z,78.02
2022-08-28T09:10:47.798Z,74.71
2022-08-28T09:11:51.085Z,76.83
2022-08-28T09:12:48.730Z,79.64
2022-08-28T09:13:47.750Z,78.70
2022-08-28T09:14:48.665Z,77.00
2022-08-28T09:15:50.796Z,76.59
2022-08-28T09:16:47.645Z,78.40
2022-08-28T09:17:47.639Z,79.00
2022-08-28T09:18:47.621Z,77.03
2022-08-28T09:19:47.614Z,78.44
2022-08-28T09:20:47.615Z,78.44
2022-08-28T09:21:47.615Z,78.10
2022-08-28T09:22:47.567Z,78.20
2022-08-28T09:23:47.717Z,79.61
2022-08-28T09:24:47.597Z,79.06
2022-08-28T09:25:47.548Z,78.97
2022-08-28T09:26:47.531Z,78.36
2022-08-28T09:27:47.616Z,76.42
2022-08-28T09:28:47.512Z,78.79
2022-08-28T09:29:47.500Z,77.99
2022-08-28T09:30:47.529Z,77.09
2022-08-28T09:31:47.479Z,76.28
2022-08-28T09:32:47.482Z,76.25
2022-08-28T09:33:47.453Z,76.92
2022-08-28T09:34:47.438Z,77.86
2022-08-28T09:35:47.433Z,77.56
2022-08-28T09:36:47.453Z,78.56
2022-08-28T09:37:47.420Z,79.19
2022-08-28T09:38:47.409Z,76.81
2022-08-28T09:39:48.959Z,77.61
2022-08-28T09:40:47.402Z,76.57
2022-08-28T09:41:47.398Z,75.71
2022-08-28T09:42:47.378Z,77.31
2022-08-28T09:43:47.349Z,74.54
2022-08-28T09:44:47.407Z,76.20
2022-08-28T09:45:47.316Z,75.04
2022-08-28T09:46:47.407Z,75.13
2022-08-28T09:47:47.391Z,76.00
2022-08-28T09:48:47.419Z,73.19
2022-08-28T09:49:47.276Z,75.76
2022-08-28T09:50:47.286Z,73.43
2022-08-28T09:51:47.268Z,73.80
2022-08-28T09:52:47.261Z,74.00
2022-08-28T09:53:47.255Z,76.26
2022-08-28T09:54:47.269Z,72.39
2022-08-28T09:55:47.210Z,72.86
2022-08-28T09:56:47.206Z,74.80
2022-08-28T09:57:47.255Z,75.45
2022-08-28T09:58:47.226Z,73.87
2022-08-28T09:59:47.224Z,75.04
2022-08-28T10:00:47.167Z,75.60
2022-08-28T10:01:47.262Z,75.27
2022-08-28T10:02:47.142Z,74.87
2022-08-28T10:03:47.128Z,72.60
2022-08-28T10:04:47.377Z,75.41
2022-08-28T10:05:47.136Z,76.34
2022-08-28T10:06:47.091Z,75.60
2022-08-28T10:07:47.082Z,75.84
2022-08-28T10:08:47.097Z,73.23
2022-08-28T10:09:47.845Z,73.30
2022-08-28T10:10:47.167Z,71.80
2022-08-28T10:11:47.035Z,73.43
2022-08-28T10:12:47.106Z,72.97
2022-08-28T10:13:47.015Z,74.84
2022-08-28T10:14:47.005Z,73.10
2022-08-28T10:15:47.052Z,73.33
2022-08-28T10:16:47.007Z,73.33
2022-08-28T10:17:47.001Z,73.54
2022-08-28T10:18:46.970Z,77.54
2022-08-28T10:19:46.945Z,74.50
2022-08-28T10:20:46.974Z,74.60
2022-08-28T10:21:46.956Z,73.96
2022-08-28T10:22:47.999Z,71.92
2022-08-28T10:23:47.009Z,74.29
2022-08-28T10:24:47.062Z,69.96
2022-08-28T10:25:46.991Z,72.66
2022-08-28T10:26:46.985Z,70.32
2022-08-28T10:27:46.978Z,71.09
2022-08-28T10:28:46.950Z,72.30
2022-08-28T10:29:47.009Z,72.66
2022-08-28T10:30:48.007Z,71.59
2022-08-28T10:31:46.878Z,70.16
2022-08-28T10:32:46.997Z,69.53
2022-08-28T10:33:46.839Z,71.16
2022-08-28T10:34:46.832Z,71.50
2022-08-28T10:35:46.883Z,69.76
2022-08-28T10:36:46.895Z,70.86
2022-08-28T10:37:46.794Z,69.36
2022-08-28T10:38:51.194Z,71.33
2022-08-28T10:39:47.833Z,69.43
2022-08-28T10:40:46.784Z,70.86
2022-08-28T10:41:46.783Z,69.53
2022-08-28T10:42:46.929Z,68.46
2022-08-28T10:43:48.054Z,69.93
2022-08-28T10:44:46.826Z,68.86
2022-08-28T10:45:46.803Z,70.29
2022-08-28T10:46:46.772Z,67.60
2022-08-28T10:47:46.770Z,69.43
2022-08-28T10:48:46.792Z,68.76
2022-08-28T10:49:46.667Z,66.80
2022-08-28T10:50:46.623Z,70.76
2022-08-28T10:51:46.657Z,66.13
2022-08-28T10:52:46.601Z,68.33
2022-08-28T10:53:46.589Z,69.20
2022-08-28T10:54:46.577Z,67.83
2022-08-28T10:55:46.578Z,68.46
2022-08-28T10:56:46.560Z,70.53
2022-08-28T10:57:47.559Z,70.76
2022-08-28T10:58:46.539Z,69.73
2022-08-28T10:59:46.528Z,68.03
2022-08-28T11:00:46.679Z,68.49
2022-08-28T11:01:46.630Z,68.89
2022-08-28T11:02:46.686Z,66.60
2022-08-28T11:03:46.572Z,66.33
2022-08-28T11:04:46.470Z,66.66
2022-08-28T11:05:53.450Z,66.53
2022-08-28T11:06:47.506Z,66.73
2022-08-28T11:07:46.573Z,66.56
2022-08-28T11:08:46.434Z,65.59
2022-08-28T11:09:46.423Z,68.86
2022-08-28T11:10:46.444Z,67.86
2022-08-28T11:11:46.499Z,66.36
2022-08-28T11:12:46.384Z,64.46
2022-08-28T11:13:46.500Z,66.66
2022-08-28T11:14:48.058Z,67.26
2022-08-28T11:15:46.355Z,66.53
2022-08-28T11:16:46.536Z,64.64
2022-08-28T11:17:46.375Z,63.61
2022-08-28T11:18:46.485Z,63.98
2022-08-28T11:19:51.656Z,64.25
2022-08-28T11:20:47.366Z,61.46
2022-08-28T11:21:46.281Z,61.22
2022-08-28T11:22:46.293Z,65.67
2022-08-28T11:23:46.266Z,61.55
2022-08-28T11:24:46.280Z,61.03
2022-08-28T11:25:46.261Z,61.13
2022-08-28T11:26:46.238Z,62.29
2022-08-28T11:27:46.420Z,60.83
2022-08-28T11:28:46.206Z,59.74
2022-08-28T11:29:46.206Z,62.55
2022-08-28T11:30:46.259Z,64.31
2022-08-28T11:31:46.179Z,61.19
2022-08-28T11:32:47.198Z,62.01
2022-08-28T11:33:46.183Z,64.07
2022-08-28T11:34:46.143Z,65.01
2022-08-28T11:35:46.164Z,61.10
2022-08-28T11:36:46.142Z,61.10
2022-08-28T11:37:46.130Z,60.56
2022-08-28T11:38:46.103Z,61.71
2022-08-28T11:39:46.197Z,62.04
2022-08-28T11:40:46.090Z,62.78
2022-08-28T11:41:46.062Z,60.76
2022-08-28T11:42:46.076Z,58.24
2022-08-28T11:43:46.090Z,58.87
2022-08-28T11:44:46.043Z,57.28
2022-08-28T11:45:47.369Z,59.96
2022-08-28T11:46:46.058Z,60.83
2022-08-28T11:47:46.080Z,60.40
2022-08-28T11:48:45.986Z,57.94
2022-08-28T11:49:45.975Z,58.42
2022-08-28T11:50:45.963Z,60.89
2022-08-28T11:51:45.952Z,61.16
2022-08-28T11:52:45.954Z,63.95
2022-08-28T11:53:45.948Z,62.21
2022-08-28T11:54:45.922Z,59.72
2022-08-28T11:55:45.914Z,59.30
2022-08-28T11:56:45.902Z,60.19
2022-08-28T11:57:45.894Z,53.98
2022-08-28T11:58:45.880Z,55.47
2022-08-28T11:59:45.931Z,54.55
2022-08-28T12:00:46.014Z,56.57
2022-08-28T12:01:45.847Z,56.54
2022-08-28T12:02:45.873Z,56.02
2022-08-28T12:03:45.857Z,55.40
2022-08-28T12:04:45.871Z,59.44
2022-08-28T12:05:45.842Z,61.05
2022-08-28T12:06:45.808Z,58.30
2022-08-28T12:07:45.816Z,62.76
2022-08-28T12:08:45.791Z,65.81
2022-08-28T12:09:45.819Z,67.73
2022-08-28T12:10:45.766Z,72.22
2022-08-28T12:11:45.746Z,69.32
2022-08-28T12:12:46.136Z,71.69
2022-08-28T12:13:45.730Z,74.47
2022-08-28T12:14:45.702Z,72.05
2022-08-28T12:15:45.720Z,66.38
2022-08-28T12:16:45.702Z,65.98
2022-08-28T12:17:45.702Z,70.26
2022-08-28T12:18:45.666Z,59.01
2022-08-28T12:19:52.091Z,59.64
2022-08-28T12:20:46.644Z,65.51
2022-08-28T12:21:45.640Z,67.86
2022-08-28T12:22:45.655Z,58.37
2022-08-28T12:23:45.611Z,63.35
2022-08-28T12:24:45.600Z,60.69
2022-08-28T12:25:46.196Z,62.68
2022-08-28T12:26:45.596Z,61.41
2022-08-28T12:27:45.570Z,60.86
2022-08-28T12:28:45.593Z,59.00
2022-08-28T12:29:45.549Z,61.06
2022-08-28T12:30:45.585Z,59.79
2022-08-28T12:31:45.531Z,60.16
2022-08-28T12:32:45.518Z,60.26
2022-08-28T12:33:45.504Z,59.56
2022-08-28T12:34:45.514Z,58.59
2022-08-28T12:35:45.485Z,60.62
2022-08-28T12:36:50.110Z,59.99
2022-08-28T12:37:53.058Z,58.37
2022-08-28T12:38:46.450Z,55.58
2022-08-28T12:39:45.461Z,56.87
2022-08-28T12:40:45.449Z,58.76
2022-08-28T12:41:45.421Z,55.88
2022-08-28T12:42:45.419Z,57.61
2022-08-28T12:43:46.760Z,58.28
2022-08-28T12:44:45.410Z,57.95
2022-08-28T12:45:45.454Z,59.30
2022-08-28T12:46:45.434Z,56.51
2022-08-28T12:47:45.360Z,55.78
2022-08-28T12:48:45.349Z,56.18
2022-08-28T12:49:45.332Z,55.48
2022-08-28T12:50:45.342Z,56.68
2022-08-28T12:51:45.314Z,57.05
2022-08-28T12:52:45.372Z,55.88